• Join FlightAware (Why Join?)
  • Login
  • US Flag 
10:21AM EDT


 

Airport Tracker/Info


-or-


 

Live Flight TrackerFlight Track Log ✈ EJA122 ✈ 20-Jul-2013 ✈ KJAC - KRIW

Flight Track Log - Related Links

Times and Time Zones

All times are in EDT time to prevent confusion due to time zone crossing. See the EJA122 flight status page for this flight to view local times or setup timezone preferences in your user account.

Time Position Orientation Groundspeed Altitude Reporting Facility
EDT Latitude Longitude Course Direction KTS MPH feet Rate Location/Type
05:26PM 43.5800 -110.7522 135° Southeast 188 216 7,200  Level Salt Lake Center
05:27PM 43.5275 -110.7914 208° Southwest 214 246 10,200 2,940 Climbing Salt Lake Center
05:28PM 43.4678 -110.8283 204° Southwest 228 262 13,300 2,760 Climbing Salt Lake Center
05:29PM 43.3842 -110.8242 178° South 292 336 16,000 1,740 Climbing Salt Lake Center
05:30PM 43.3636 -110.6992 103° East 349 402 17,000 480 Climbing Salt Lake Center
05:31PM 43.1240 -110.8539 135° Southeast  Level FlightAware Approximate
05:31PM 43.3472 -110.5494 99° East 399 459 17,000  Level Salt Lake Center
05:32PM 43.3286 -110.3911 99° East 420 483 17,000  Level Salt Lake Center
05:33PM 43.3111 -110.2494 100° East 387 445 17,000 -60 Level Salt Lake Center
05:34PM 43.2900 -110.0942 101° East 349 402 16,900 -60 Descending Salt Lake Center
05:35PM 43.2736 -109.9653 100° East 335 386 16,900  Level Salt Lake Center
05:36PM 43.2578 -109.8469 100° East 331 381 16,900 60 Level Salt Lake Center
05:37PM 43.2378 -109.7072 101° East 333 383 17,100 60 Climbing Salt Lake Center
05:39PM 43.2225 -109.5828 100° East 334 384 17,100  Level Salt Lake Center
05:40PM 43.2047 -109.4592 101° East 333 383 17,100  Level Salt Lake Center
05:41PM 43.1878 -109.3367 101° East 330 380 17,100 -540 Level Salt Lake Center
05:42PM 43.1711 -109.2150 101° East 326 375 16,000 -1,140 Descending Salt Lake Center
05:43PM 43.1547 -109.0967 101° East 323 372 14,800 -1,020 Descending Salt Lake Center
05:44PM 43.1492 -108.9622 93° East 309 356 14,000 -960 Descending Salt Lake Center
05:45PM 43.1422 -108.8586 95° East 297 342 12,900 -1,080 Descending Salt Lake Center
05:46PM 43.1183 -108.7592 108° East 284 327 11,800 -1,080 Descending Salt Lake Center